createdAt,value
2017-08-08T00:00:21.540Z,0
2017-08-08T00:01:22.308Z,0
2017-08-08T00:02:23.804Z,0
2017-08-08T00:03:24.590Z,0
2017-08-08T00:04:25.697Z,0
2017-08-08T00:05:26.577Z,0
2017-08-08T00:06:27.509Z,0
2017-08-08T00:07:28.352Z,0
2017-08-08T00:08:29.452Z,0
2017-08-08T00:09:30.283Z,0
2017-08-08T00:10:31.041Z,0
2017-08-08T00:11:31.830Z,0
2017-08-08T00:12:32.589Z,0
2017-08-08T00:13:33.528Z,0
2017-08-08T00:14:34.413Z,0
2017-08-08T00:15:35.236Z,0
2017-08-08T00:16:36.064Z,0
2017-08-08T00:17:36.835Z,0
2017-08-08T00:18:37.669Z,0
2017-08-08T00:19:38.395Z,0
2017-08-08T00:20:39.231Z,0
2017-08-08T00:21:40.061Z,0
2017-08-08T00:22:40.788Z,0
2017-08-08T00:23:41.972Z,0
2017-08-08T00:24:42.818Z,0
2017-08-08T00:25:43.861Z,0
2017-08-08T00:26:44.807Z,0
2017-08-08T00:27:45.883Z,0
2017-08-08T00:28:46.623Z,0
2017-08-08T00:29:47.511Z,0
2017-08-08T00:30:48.220Z,0
2017-08-08T00:31:49.118Z,0
2017-08-08T00:32:49.897Z,0
2017-08-08T00:33:50.637Z,0
2017-08-08T00:34:51.615Z,0
2017-08-08T00:35:52.451Z,0
2017-08-08T00:36:53.331Z,0
2017-08-08T00:37:54.157Z,0
2017-08-08T00:38:54.938Z,0
2017-08-08T00:39:55.911Z,0
2017-08-08T00:40:56.678Z,0
2017-08-08T00:41:57.414Z,0
2017-08-08T00:42:58.282Z,0
2017-08-08T00:43:59.009Z,0
2017-08-08T00:44:59.770Z,0
2017-08-08T00:46:00.567Z,0
2017-08-08T00:47:01.328Z,0
2017-08-08T00:48:02.242Z,0
2017-08-08T00:49:03.267Z,0
2017-08-08T00:50:04.122Z,0
2017-08-08T00:51:04.866Z,0
2017-08-08T00:52:05.637Z,0
2017-08-08T00:53:06.471Z,0
2017-08-08T00:54:07.209Z,0
2017-08-08T00:55:08.018Z,0
2017-08-08T00:56:08.808Z,0
2017-08-08T00:57:09.592Z,0
2017-08-08T00:58:10.376Z,0
2017-08-08T00:59:11.114Z,0
2017-08-08T01:00:12.008Z,0
2017-08-08T01:01:12.923Z,0
2017-08-08T01:02:13.661Z,0
2017-08-08T01:03:14.431Z,0
2017-08-08T01:04:15.266Z,0
2017-08-08T01:05:15.979Z,0
2017-08-08T01:06:16.884Z,0
2017-08-08T01:07:17.647Z,0
2017-08-08T01:08:18.366Z,0
2017-08-08T01:09:19.179Z,0
2017-08-08T01:10:19.971Z,0
2017-08-08T01:11:20.725Z,0
2017-08-08T01:12:21.873Z,0
2017-08-08T01:13:22.594Z,0
2017-08-08T01:14:23.331Z,0
2017-08-08T01:15:24.343Z,0
2017-08-08T01:16:25.089Z,0
2017-08-08T01:17:25.888Z,0
2017-08-08T01:18:26.651Z,0
2017-08-08T01:19:27.358Z,0
2017-08-08T01:20:28.357Z,0
2017-08-08T01:21:29.187Z,0
2017-08-08T01:22:29.957Z,0
2017-08-08T01:23:30.684Z,0
2017-08-08T01:24:31.468Z,0
2017-08-08T01:25:32.242Z,0
2017-08-08T01:26:33.144Z,0
2017-08-08T01:27:33.944Z,0
2017-08-08T01:28:34.710Z,0
2017-08-08T01:29:35.691Z,0
2017-08-08T01:30:36.379Z,0
2017-08-08T01:31:37.221Z,0
2017-08-08T01:32:38.072Z,0
2017-08-08T01:33:38.766Z,0
2017-08-08T01:34:39.518Z,0
2017-08-08T01:35:40.261Z,0
2017-08-08T01:36:41.200Z,0
2017-08-08T01:37:42.299Z,0
2017-08-08T01:38:43.304Z,0
2017-08-08T01:39:44.057Z,0
2017-08-08T01:40:44.811Z,0
2017-08-08T01:41:45.644Z,0
2017-08-08T01:42:46.558Z,0
2017-08-08T01:43:47.333Z,0
2017-08-08T01:44:48.103Z,0
2017-08-08T01:45:49.140Z,0
2017-08-08T01:46:49.897Z,0
2017-08-08T01:47:50.658Z,0
2017-08-08T01:48:51.520Z,0
2017-08-08T01:49:52.277Z,0
2017-08-08T01:50:53.071Z,0
2017-08-08T01:51:53.883Z,0
2017-08-08T01:52:54.612Z,0
2017-08-08T01:53:55.384Z,0
2017-08-08T01:54:56.233Z,0
2017-08-08T01:55:56.980Z,0
2017-08-08T01:56:57.796Z,0
2017-08-08T01:57:58.637Z,0
2017-08-08T01:58:59.555Z,0
2017-08-08T02:00:00.393Z,0
2017-08-08T02:01:01.143Z,0
2017-08-08T02:02:01.925Z,0
2017-08-08T02:03:02.777Z,0
2017-08-08T02:04:03.581Z,0
2017-08-08T02:05:04.514Z,0
2017-08-08T02:06:05.649Z,0
2017-08-08T02:08:21.937Z,0
2017-08-08T02:09:22.722Z,0
2017-08-08T02:10:23.536Z,0
2017-08-08T02:11:24.359Z,0
2017-08-08T02:12:25.171Z,0
2017-08-08T02:13:26.052Z,0
2017-08-08T02:14:27.016Z,0
2017-08-08T02:15:28.010Z,0
2017-08-08T02:16:28.895Z,0
2017-08-08T02:17:29.742Z,0
2017-08-08T02:18:30.644Z,0
2017-08-08T02:19:31.369Z,0
2017-08-08T02:20:32.415Z,0
2017-08-08T02:21:33.287Z,0
2017-08-08T02:22:34.050Z,0
2017-08-08T02:23:35.055Z,0
2017-08-08T02:24:35.983Z,0
2017-08-08T02:25:36.779Z,0
2017-08-08T02:26:37.857Z,0
2017-08-08T02:27:38.612Z,0
2017-08-08T02:28:39.641Z,0
2017-08-08T02:29:40.512Z,0
2017-08-08T02:30:41.620Z,0
2017-08-08T02:31:42.427Z,0
2017-08-08T02:32:43.227Z,0
2017-08-08T02:33:43.992Z,0
2017-08-08T02:34:44.968Z,0
2017-08-08T02:35:45.995Z,0
2017-08-08T02:36:46.753Z,0
2017-08-08T02:37:47.632Z,0
2017-08-08T02:38:48.461Z,0
2017-08-08T02:39:55.453Z,0
2017-08-08T02:40:56.260Z,0
2017-08-08T02:41:57.031Z,0
2017-08-08T02:42:57.858Z,0
2017-08-08T02:43:58.647Z,0
2017-08-08T02:44:59.543Z,0
2017-08-08T02:46:00.309Z,0
2017-08-08T02:47:01.095Z,0
2017-08-08T02:48:01.880Z,0
2017-08-08T02:49:02.819Z,0
2017-08-08T02:50:03.622Z,0
2017-08-08T02:51:04.380Z,0
2017-08-08T02:52:05.161Z,0
2017-08-08T02:53:05.946Z,0
2017-08-08T02:54:06.758Z,0
2017-08-08T02:55:07.632Z,0
2017-08-08T02:56:08.450Z,0
2017-08-08T02:57:09.191Z,0
2017-08-08T02:58:10.127Z,0
2017-08-08T02:59:11.546Z,0
2017-08-08T03:00:12.395Z,0
2017-08-08T03:01:13.231Z,0
2017-08-08T03:02:14.040Z,0
2017-08-08T03:03:15.058Z,0
2017-08-08T03:04:15.851Z,0
2017-08-08T03:05:16.632Z,0
2017-08-08T03:06:17.385Z,0
2017-08-08T03:07:18.100Z,0
2017-08-08T03:08:18.942Z,0
2017-08-08T03:09:19.709Z,0
2017-08-08T03:10:20.440Z,0
2017-08-08T03:11:21.168Z,0
2017-08-08T03:12:21.918Z,0
2017-08-08T03:13:22.760Z,0
2017-08-08T03:14:23.575Z,0
2017-08-08T03:15:24.393Z,0
2017-08-08T03:16:25.291Z,0
2017-08-08T03:17:26.069Z,0
2017-08-08T03:18:27.072Z,0
2017-08-08T03:19:27.855Z,0
2017-08-08T03:20:28.813Z,0
2017-08-08T03:21:29.546Z,0
2017-08-08T03:22:30.396Z,0
2017-08-08T03:23:31.140Z,0
2017-08-08T03:24:31.879Z,0
2017-08-08T03:25:32.641Z,0
2017-08-08T03:26:33.356Z,0
2017-08-08T03:27:34.119Z,0
2017-08-08T03:28:34.847Z,0
2017-08-08T03:29:35.707Z,0
2017-08-08T03:30:36.861Z,0
2017-08-08T03:31:37.625Z,0
2017-08-08T03:32:38.361Z,0
2017-08-08T03:33:39.280Z,0
2017-08-08T03:34:40.006Z,0
2017-08-08T03:35:40.834Z,0
2017-08-08T03:36:42.593Z,0
2017-08-08T03:37:43.405Z,0
2017-08-08T03:38:44.176Z,0
2017-08-08T03:39:44.917Z,0
2017-08-08T03:40:45.831Z,0
2017-08-08T03:41:46.672Z,0
2017-08-08T03:42:47.510Z,0
2017-08-08T03:43:48.326Z,0
2017-08-08T03:44:49.069Z,0
2017-08-08T03:45:49.926Z,0
2017-08-08T03:46:50.677Z,0
2017-08-08T03:47:51.392Z,0
2017-08-08T03:48:52.201Z,0
2017-08-08T03:49:53.018Z,0
2017-08-08T03:50:53.906Z,0
2017-08-08T03:51:54.615Z,0
2017-08-08T03:52:55.497Z,0
2017-08-08T03:53:56.426Z,0
2017-08-08T03:54:57.170Z,0
2017-08-08T03:55:57.900Z,0
2017-08-08T03:56:58.800Z,0
2017-08-08T03:57:59.789Z,0
2017-08-08T03:59:00.548Z,0
2017-08-08T04:00:01.408Z,0
2017-08-08T04:01:02.347Z,0
2017-08-08T04:02:03.211Z,0
2017-08-08T04:03:03.992Z,0
2017-08-08T04:04:04.926Z,5
2017-08-08T04:05:05.968Z,5
2017-08-08T04:06:07.096Z,5
2017-08-08T04:07:08.176Z,5
2017-08-08T04:08:09.057Z,5
2017-08-08T04:09:10.015Z,5
2017-08-08T04:10:10.795Z,10
2017-08-08T04:11:11.538Z,10
2017-08-08T04:12:12.615Z,10
2017-08-08T04:13:13.366Z,10
2017-08-08T04:14:14.239Z,10
2017-08-08T04:15:15.375Z,15
2017-08-08T04:16:16.558Z,15
2017-08-08T04:17:17.406Z,10
2017-08-08T04:18:18.195Z,10
2017-08-08T04:19:19.228Z,10
2017-08-08T04:20:20.270Z,10
2017-08-08T04:21:21.095Z,10
2017-08-08T04:22:21.934Z,10
2017-08-08T04:23:22.937Z,10
2017-08-08T04:24:23.733Z,15
2017-08-08T04:25:24.614Z,10
2017-08-08T04:26:25.423Z,10
2017-08-08T04:27:26.643Z,15
2017-08-08T04:28:27.362Z,25
2017-08-08T04:29:28.124Z,25
2017-08-08T04:30:29.201Z,30
2017-08-08T04:31:30.079Z,25
2017-08-08T04:32:31.052Z,20
2017-08-08T04:33:31.770Z,20
2017-08-08T04:34:32.667Z,20
2017-08-08T04:35:33.487Z,20
2017-08-08T04:36:34.224Z,20
2017-08-08T04:37:35.073Z,20
2017-08-08T04:38:35.864Z,15
2017-08-08T04:39:36.594Z,15
2017-08-08T04:40:37.403Z,15
2017-08-08T04:41:38.105Z,15
2017-08-08T04:42:38.859Z,15
2017-08-08T04:43:39.673Z,15
2017-08-08T04:44:40.428Z,20
2017-08-08T04:45:41.310Z,30
2017-08-08T04:46:42.160Z,30
2017-08-08T04:47:42.959Z,25
2017-08-08T04:48:43.722Z,25
2017-08-08T04:49:44.599Z,30
2017-08-08T04:50:45.345Z,30
2017-08-08T04:51:46.249Z,35
2017-08-08T04:52:47.108Z,35
2017-08-08T04:53:47.936Z,40
2017-08-08T04:54:48.675Z,45
2017-08-08T04:55:49.706Z,45
2017-08-08T04:56:50.481Z,40
2017-08-08T04:57:51.256Z,45
2017-08-08T04:58:51.934Z,55
2017-08-08T04:59:52.695Z,60
2017-08-08T05:00:53.985Z,45
2017-08-08T05:01:55.041Z,35
2017-08-08T05:02:55.855Z,40
2017-08-08T05:03:56.600Z,40
2017-08-08T05:04:57.509Z,50
2017-08-08T05:05:58.270Z,60
2017-08-08T05:06:59.112Z,60
2017-08-08T05:07:59.889Z,55
2017-08-08T05:09:00.868Z,45
2017-08-08T05:10:01.750Z,50
2017-08-08T05:11:02.524Z,45
2017-08-08T05:12:03.396Z,80
2017-08-08T05:13:04.220Z,80
2017-08-08T05:14:05.205Z,100
2017-08-08T05:15:06.539Z,105
2017-08-08T05:16:08.324Z,90
2017-08-08T05:17:09.106Z,105
2017-08-08T05:18:09.876Z,125
2017-08-08T05:19:10.962Z,90
2017-08-08T05:20:11.885Z,90
2017-08-08T05:21:12.784Z,100
2017-08-08T05:22:13.609Z,90
2017-08-08T05:23:14.363Z,100
2017-08-08T05:24:15.150Z,115
2017-08-08T05:25:16.004Z,110
2017-08-08T05:26:17.153Z,105
2017-08-08T05:27:18.262Z,90
2017-08-08T05:28:19.007Z,65
2017-08-08T05:29:19.836Z,65
2017-08-08T05:30:20.772Z,55
2017-08-08T05:31:21.557Z,60
2017-08-08T05:32:23.858Z,70
2017-08-08T05:33:24.983Z,60
2017-08-08T05:34:25.815Z,55
2017-08-08T05:35:26.590Z,40
2017-08-08T05:36:27.611Z,50
2017-08-08T05:37:28.444Z,45
2017-08-08T05:38:29.419Z,40
2017-08-08T05:39:30.200Z,40
2017-08-08T05:40:31.002Z,40
2017-08-08T05:41:31.810Z,30
2017-08-08T05:42:32.788Z,40
2017-08-08T05:43:33.555Z,35
2017-08-08T05:44:34.369Z,35
2017-08-08T05:45:35.337Z,45
2017-08-08T05:46:36.158Z,55
2017-08-08T05:47:37.065Z,55
2017-08-08T05:48:37.927Z,50
2017-08-08T05:49:38.644Z,35
2017-08-08T05:50:39.581Z,50
2017-08-08T05:51:40.362Z,45
2017-08-08T05:52:41.185Z,55
2017-08-08T05:53:41.937Z,65
2017-08-08T05:54:42.708Z,75
2017-08-08T05:55:43.472Z,65
2017-08-08T05:56:44.200Z,65
2017-08-08T05:57:44.918Z,65
2017-08-08T05:58:45.676Z,60
2017-08-08T05:59:46.431Z,70
2017-08-08T06:00:47.803Z,60
2017-08-08T06:01:48.699Z,40
2017-08-08T06:02:49.505Z,35
2017-08-08T06:03:50.372Z,30
2017-08-08T06:04:51.120Z,35
2017-08-08T06:05:51.944Z,30
2017-08-08T06:07:55.280Z,30
2017-08-08T06:08:56.349Z,30
2017-08-08T06:09:57.199Z,30
2017-08-08T06:10:58.007Z,25
2017-08-08T06:11:58.874Z,30
2017-08-08T06:12:59.766Z,30
2017-08-08T06:14:00.492Z,30
2017-08-08T06:15:01.284Z,35
2017-08-08T06:16:02.128Z,35
2017-08-08T06:17:03.282Z,35
2017-08-08T06:18:04.074Z,30
2017-08-08T06:19:05.410Z,25
2017-08-08T06:20:06.367Z,30
2017-08-08T06:21:07.116Z,30
2017-08-08T06:22:07.957Z,30
2017-08-08T06:23:08.838Z,30
2017-08-08T06:24:09.672Z,30
2017-08-08T06:25:10.432Z,30
2017-08-08T06:26:11.341Z,25
2017-08-08T06:27:12.102Z,30
2017-08-08T06:28:12.832Z,30
2017-08-08T06:29:13.653Z,35
2017-08-08T06:30:14.635Z,35
2017-08-08T06:31:15.463Z,30
2017-08-08T06:32:16.335Z,30
2017-08-08T06:33:17.204Z,30
2017-08-08T06:34:18.134Z,30
2017-08-08T06:35:19.702Z,30
2017-08-08T06:36:20.557Z,30
2017-08-08T06:37:21.473Z,30
2017-08-08T06:38:22.287Z,30
2017-08-08T06:39:23.136Z,35
2017-08-08T06:40:24.176Z,30
2017-08-08T06:41:25.096Z,30
2017-08-08T06:42:26.268Z,30
2017-08-08T06:43:27.103Z,30
2017-08-08T06:44:27.878Z,30
2017-08-08T06:45:28.892Z,30
2017-08-08T06:46:29.728Z,30
2017-08-08T06:47:30.761Z,30
2017-08-08T06:48:31.538Z,30
2017-08-08T06:49:32.393Z,30
2017-08-08T06:50:33.203Z,30
2017-08-08T06:51:34.040Z,30
2017-08-08T06:52:35.062Z,30
2017-08-08T06:53:35.921Z,30
2017-08-08T06:54:36.750Z,30
2017-08-08T06:55:37.858Z,30
2017-08-08T06:56:38.555Z,30
2017-08-08T06:57:39.490Z,25
2017-08-08T06:58:40.233Z,25
2017-08-08T06:59:41.390Z,30
2017-08-08T07:00:42.902Z,30
2017-08-08T07:01:44.265Z,30
2017-08-08T07:02:45.381Z,30
2017-08-08T07:03:56.483Z,30
2017-08-08T07:04:57.259Z,30
2017-08-08T07:05:58.215Z,35
2017-08-08T07:06:59.352Z,40
2017-08-08T07:08:00.149Z,35
2017-08-08T07:09:00.876Z,35
2017-08-08T07:10:01.737Z,35
2017-08-08T07:11:02.552Z,35
2017-08-08T07:12:03.308Z,35
2017-08-08T07:13:04.144Z,35
2017-08-08T07:14:05.049Z,35
2017-08-08T07:15:05.891Z,35
2017-08-08T07:16:06.799Z,35
2017-08-08T07:17:07.633Z,35
2017-08-08T07:18:08.491Z,35
2017-08-08T07:19:09.295Z,35
2017-08-08T07:20:10.104Z,35
2017-08-08T07:21:11.203Z,35
2017-08-08T07:22:12.265Z,35
2017-08-08T07:23:13.049Z,35
2017-08-08T07:24:13.843Z,35
2017-08-08T07:25:14.617Z,30
2017-08-08T07:26:15.353Z,30
2017-08-08T07:27:16.566Z,35
2017-08-08T07:28:17.519Z,30
2017-08-08T07:29:18.285Z,30
2017-08-08T07:30:24.248Z,35
2017-08-08T07:31:25.078Z,30
2017-08-08T07:32:26.087Z,30
2017-08-08T07:33:27.119Z,30
2017-08-08T07:34:28.179Z,30
2017-08-08T07:35:29.168Z,25
2017-08-08T07:36:30.055Z,25
2017-08-08T07:37:30.882Z,25
2017-08-08T07:38:31.666Z,25
2017-08-08T07:39:32.656Z,25
2017-08-08T07:40:34.142Z,25
2017-08-08T07:41:34.931Z,25
2017-08-08T07:42:35.819Z,25
2017-08-08T07:43:36.662Z,25
2017-08-08T07:44:37.417Z,25
2017-08-08T07:45:38.532Z,25
2017-08-08T07:46:39.249Z,25
2017-08-08T07:47:40.000Z,25
2017-08-08T07:48:40.864Z,25
2017-08-08T07:49:41.698Z,25
2017-08-08T07:50:42.602Z,25
2017-08-08T07:51:43.621Z,25
2017-08-08T07:52:44.458Z,25
2017-08-08T07:53:45.212Z,25
2017-08-08T07:54:46.029Z,25
2017-08-08T07:55:46.820Z,25
2017-08-08T07:56:47.715Z,30
2017-08-08T07:57:48.594Z,30
2017-08-08T07:58:49.335Z,30
2017-08-08T07:59:50.158Z,35
2017-08-08T08:00:51.038Z,35
2017-08-08T08:01:51.942Z,35
2017-08-08T08:02:52.881Z,35
2017-08-08T08:03:53.733Z,40
2017-08-08T08:04:54.545Z,40
2017-08-08T08:05:55.361Z,40
2017-08-08T08:06:56.201Z,45
2017-08-08T08:07:57.411Z,45
2017-08-08T08:08:58.320Z,45
2017-08-08T08:09:59.091Z,50
2017-08-08T08:11:00.771Z,55
2017-08-08T08:12:02.177Z,60
2017-08-08T08:13:02.934Z,75
2017-08-08T08:14:03.716Z,90
2017-08-08T08:15:04.576Z,125
2017-08-08T08:16:05.771Z,180
2017-08-08T08:17:06.723Z,310
2017-08-08T08:18:07.531Z,320
2017-08-08T08:19:08.362Z,515
2017-08-08T08:20:09.172Z,530
2017-08-08T08:21:10.003Z,520
2017-08-08T08:22:10.838Z,510
2017-08-08T08:23:11.670Z,455
2017-08-08T08:24:12.715Z,360
2017-08-08T08:25:13.606Z,295
2017-08-08T08:26:14.468Z,325
2017-08-08T08:27:15.392Z,335
2017-08-08T08:28:16.251Z,285
2017-08-08T08:29:17.073Z,165
2017-08-08T08:30:17.873Z,200
2017-08-08T08:31:18.575Z,185
2017-08-08T08:32:19.483Z,210
2017-08-08T08:33:20.274Z,150
2017-08-08T08:34:21.069Z,200
2017-08-08T08:35:21.899Z,195
2017-08-08T08:36:22.895Z,230
2017-08-08T08:37:23.968Z,215
2017-08-08T08:38:24.720Z,200
2017-08-08T08:39:25.569Z,240
2017-08-08T08:40:26.467Z,265
2017-08-08T08:41:27.239Z,270
2017-08-08T08:42:28.292Z,215
2017-08-08T08:43:29.158Z,125
2017-08-08T08:44:29.902Z,95
2017-08-08T08:45:30.910Z,85
2017-08-08T08:46:31.908Z,90
2017-08-08T08:47:32.707Z,70
2017-08-08T08:48:33.632Z,65
2017-08-08T08:49:34.382Z,60
2017-08-08T08:50:35.207Z,60
2017-08-08T08:51:36.026Z,95
2017-08-08T08:52:36.876Z,185
2017-08-08T08:53:37.919Z,230
2017-08-08T08:54:38.858Z,200
2017-08-08T08:55:39.657Z,175
2017-08-08T08:56:40.410Z,95
2017-08-08T08:57:41.472Z,70
2017-08-08T08:58:42.255Z,70
2017-08-08T08:59:43.083Z,60
2017-08-08T09:00:44.141Z,55
2017-08-08T09:01:44.878Z,50
2017-08-08T09:02:45.684Z,55
2017-08-08T09:03:46.504Z,50
2017-08-08T09:04:47.320Z,55
2017-08-08T09:05:48.081Z,55
2017-08-08T09:06:48.806Z,60
2017-08-08T09:07:49.544Z,70
2017-08-08T09:08:50.395Z,70
2017-08-08T09:09:51.341Z,70
2017-08-08T09:10:52.317Z,60
2017-08-08T09:11:53.178Z,55
2017-08-08T09:12:53.969Z,40
2017-08-08T09:13:54.820Z,60
2017-08-08T09:14:55.836Z,55
2017-08-08T09:15:56.651Z,55
2017-08-08T09:16:57.676Z,55
2017-08-08T09:17:58.355Z,50
2017-08-08T09:18:59.148Z,55
2017-08-08T09:20:00.033Z,50
2017-08-08T09:21:00.768Z,45
2017-08-08T09:22:01.532Z,55
2017-08-08T09:23:02.321Z,50
2017-08-08T09:24:03.408Z,50
2017-08-08T09:25:04.752Z,45
2017-08-08T09:26:05.522Z,40
2017-08-08T09:27:06.332Z,40
2017-08-08T09:28:07.338Z,35
2017-08-08T09:29:08.416Z,35
2017-08-08T09:30:09.371Z,35
2017-08-08T09:31:10.366Z,35
2017-08-08T09:32:11.494Z,30
2017-08-08T09:33:12.280Z,30
2017-08-08T09:34:13.265Z,30
2017-08-08T09:35:14.101Z,35
2017-08-08T09:36:14.927Z,35
2017-08-08T09:37:15.730Z,30
2017-08-08T09:38:16.759Z,30
2017-08-08T09:39:17.569Z,35
2017-08-08T09:40:18.317Z,40
2017-08-08T09:41:19.390Z,40
2017-08-08T09:42:20.232Z,45
2017-08-08T09:43:20.984Z,45
2017-08-08T09:44:21.744Z,40
2017-08-08T09:45:22.958Z,40
2017-08-08T09:46:23.796Z,40
2017-08-08T09:47:24.635Z,40
2017-08-08T09:48:25.450Z,45
2017-08-08T09:49:26.270Z,45
2017-08-08T09:50:27.191Z,45
2017-08-08T09:51:27.966Z,45
2017-08-08T09:52:28.798Z,40
2017-08-08T09:53:29.621Z,40
2017-08-08T09:54:30.396Z,40
2017-08-08T09:55:31.279Z,40
2017-08-08T09:56:32.329Z,45
2017-08-08T09:57:33.232Z,40
2017-08-08T09:58:34.042Z,40
2017-08-08T09:59:34.823Z,40
2017-08-08T10:00:35.819Z,40
2017-08-08T10:01:36.663Z,40
2017-08-08T10:02:37.432Z,35
2017-08-08T10:03:38.263Z,35
2017-08-08T10:04:39.367Z,35
2017-08-08T10:05:40.312Z,35
2017-08-08T10:06:41.351Z,35
2017-08-08T10:07:42.204Z,35
2017-08-08T10:08:43.005Z,35
2017-08-08T10:09:43.940Z,35
2017-08-08T10:10:44.833Z,30
2017-08-08T10:11:45.708Z,30
2017-08-08T10:12:46.856Z,30
2017-08-08T10:13:47.786Z,30
2017-08-08T10:14:49.105Z,30
2017-08-08T10:15:50.573Z,30
2017-08-08T10:16:51.427Z,30
2017-08-08T10:17:52.284Z,30
2017-08-08T10:18:53.083Z,30
2017-08-08T10:19:53.957Z,30
2017-08-08T10:20:54.837Z,25
2017-08-08T10:21:55.828Z,25
2017-08-08T10:22:56.776Z,25
2017-08-08T10:23:57.781Z,25
2017-08-08T10:24:59.213Z,25
2017-08-08T10:26:00.311Z,25
2017-08-08T10:27:01.308Z,25
2017-08-08T10:28:02.230Z,25
2017-08-08T10:29:03.153Z,25
2017-08-08T10:30:04.124Z,25
2017-08-08T10:31:04.923Z,25
2017-08-08T10:32:18.522Z,25
2017-08-08T10:33:19.582Z,25
2017-08-08T10:34:20.454Z,25
2017-08-08T10:35:21.284Z,25
2017-08-08T10:36:22.076Z,25
2017-08-08T10:37:22.878Z,25
2017-08-08T10:38:23.990Z,25
2017-08-08T10:39:24.982Z,25
2017-08-08T10:40:26.220Z,25
2017-08-08T10:41:27.038Z,25
2017-08-08T10:42:27.925Z,25
2017-08-08T10:43:28.794Z,25
2017-08-08T10:44:29.968Z,25
2017-08-08T10:45:31.203Z,25
2017-08-08T10:46:32.182Z,25
2017-08-08T10:47:33.572Z,25
2017-08-08T10:48:34.488Z,25
2017-08-08T10:49:35.378Z,25
2017-08-08T10:50:36.902Z,25
2017-08-08T10:51:37.689Z,25
2017-08-08T10:52:38.600Z,25
2017-08-08T10:53:39.412Z,25
2017-08-08T10:54:40.631Z,25
2017-08-08T10:55:41.505Z,25
2017-08-08T10:56:42.827Z,25
2017-08-08T10:57:43.768Z,25
2017-08-08T10:58:44.660Z,25
2017-08-08T10:59:45.677Z,20
2017-08-08T11:00:47.326Z,20
2017-08-08T11:01:48.570Z,25
2017-08-08T11:02:49.992Z,25
2017-08-08T11:03:50.747Z,25
2017-08-08T11:04:52.171Z,25
2017-08-08T11:05:53.027Z,25
2017-08-08T11:06:53.811Z,25
2017-08-08T11:07:54.793Z,25
2017-08-08T11:08:56.858Z,25
2017-08-08T11:09:57.751Z,25
2017-08-08T11:10:58.946Z,25
2017-08-08T11:11:59.802Z,25
2017-08-08T11:13:00.962Z,25
2017-08-08T11:14:01.864Z,25
2017-08-08T11:15:02.832Z,25
2017-08-08T11:16:03.660Z,25
2017-08-08T11:17:04.880Z,20
2017-08-08T11:18:05.953Z,20
2017-08-08T11:19:06.703Z,20
2017-08-08T11:20:07.614Z,20
2017-08-08T11:21:08.871Z,20
2017-08-08T11:22:09.720Z,25
2017-08-08T11:23:10.525Z,25
2017-08-08T11:24:11.295Z,25
2017-08-08T11:25:12.412Z,25
2017-08-08T11:26:13.172Z,25
2017-08-08T11:27:14.377Z,25
2017-08-08T11:28:15.398Z,25
2017-08-08T11:29:16.526Z,25
2017-08-08T11:30:17.643Z,25
2017-08-08T11:31:25.427Z,25
2017-08-08T11:32:26.348Z,30
2017-08-08T11:33:27.254Z,30
2017-08-08T11:34:28.126Z,25
2017-08-08T11:35:29.123Z,25
2017-08-08T11:36:29.919Z,25
2017-08-08T11:37:30.754Z,25
2017-08-08T11:38:31.640Z,25
2017-08-08T11:39:32.495Z,20
2017-08-08T11:40:33.531Z,20
2017-08-08T11:41:34.355Z,20
2017-08-08T11:42:35.123Z,20
2017-08-08T11:43:36.055Z,20
2017-08-08T11:44:36.861Z,20
2017-08-08T11:45:37.730Z,20
2017-08-08T11:46:38.663Z,20
2017-08-08T11:47:39.623Z,20
2017-08-08T11:48:40.443Z,20
2017-08-08T11:49:41.279Z,20
2017-08-08T11:50:42.164Z,20
2017-08-08T11:51:42.969Z,20
2017-08-08T11:52:43.817Z,20
2017-08-08T11:53:44.580Z,20
2017-08-08T11:54:45.437Z,20
2017-08-08T11:55:46.369Z,20
2017-08-08T11:56:47.218Z,20
2017-08-08T11:57:48.051Z,20
2017-08-08T11:58:48.880Z,20
2017-08-08T11:59:49.986Z,20
2017-08-08T12:00:51.547Z,20
2017-08-08T12:01:52.526Z,20
2017-08-08T12:02:53.533Z,20
2017-08-08T12:03:54.359Z,20
2017-08-08T12:04:55.163Z,20
2017-08-08T12:05:56.036Z,20
2017-08-08T12:06:57.748Z,20
2017-08-08T12:07:58.568Z,20
2017-08-08T12:09:00.416Z,20
2017-08-08T12:10:01.237Z,20
2017-08-08T12:11:01.989Z,20
2017-08-08T12:12:02.830Z,20
2017-08-08T12:13:03.614Z,20
2017-08-08T12:14:04.452Z,20
2017-08-08T12:15:05.830Z,20
2017-08-08T12:16:06.960Z,20
2017-08-08T12:17:07.940Z,20
2017-08-08T12:18:08.714Z,20
2017-08-08T12:19:09.483Z,20
2017-08-08T12:20:10.212Z,20
2017-08-08T12:21:11.254Z,20
2017-08-08T12:22:12.248Z,25
2017-08-08T12:23:13.066Z,25
2017-08-08T12:24:13.949Z,25
2017-08-08T12:25:14.849Z,25
2017-08-08T12:26:15.887Z,20
2017-08-08T12:27:16.730Z,20
2017-08-08T12:28:17.490Z,20
2017-08-08T12:29:18.517Z,15
2017-08-08T12:30:19.654Z,15
2017-08-08T12:31:20.497Z,20
2017-08-08T12:32:21.293Z,20
2017-08-08T12:33:22.345Z,15
2017-08-08T12:34:23.954Z,20
2017-08-08T12:36:41.163Z,20
2017-08-08T12:37:42.338Z,25
2017-08-08T12:38:43.415Z,25
2017-08-08T12:39:44.639Z,25
2017-08-08T12:40:45.375Z,25
2017-08-08T12:41:46.191Z,20
2017-08-08T12:42:46.929Z,20
2017-08-08T12:43:47.749Z,15
2017-08-08T12:44:49.732Z,15
2017-08-08T12:45:51.077Z,15
2017-08-08T12:46:51.958Z,15
2017-08-08T12:47:52.731Z,15
2017-08-08T12:48:53.835Z,15
2017-08-08T12:49:54.810Z,15
2017-08-08T12:50:55.543Z,15
2017-08-08T12:51:56.365Z,15
2017-08-08T12:52:57.187Z,20
2017-08-08T12:53:58.293Z,20
2017-08-08T12:54:58.986Z,20
2017-08-08T12:55:59.775Z,20
2017-08-08T12:57:00.640Z,20
2017-08-08T12:58:01.371Z,20
2017-08-08T13:00:04.150Z,20
2017-08-08T13:01:04.977Z,20
2017-08-08T13:02:06.142Z,15
2017-08-08T13:03:06.982Z,15
2017-08-08T13:04:07.826Z,15
2017-08-08T13:05:08.649Z,15
2017-08-08T13:06:09.860Z,15
2017-08-08T13:07:10.687Z,20
2017-08-08T13:08:11.480Z,20
2017-08-08T13:09:12.350Z,20
2017-08-08T13:10:13.337Z,20
2017-08-08T13:11:14.100Z,20
2017-08-08T13:12:15.332Z,20
2017-08-08T13:13:16.157Z,20
2017-08-08T13:14:17.127Z,20
2017-08-08T13:15:17.978Z,20
2017-08-08T13:16:18.934Z,20
2017-08-08T13:18:35.856Z,20
2017-08-08T13:19:36.896Z,20
2017-08-08T13:20:37.877Z,20
2017-08-08T13:21:38.727Z,20
2017-08-08T13:22:39.669Z,20
2017-08-08T13:23:40.608Z,15
2017-08-08T13:24:41.329Z,20
2017-08-08T13:25:42.242Z,15
2017-08-08T13:26:42.990Z,15
2017-08-08T13:27:43.934Z,15
2017-08-08T13:28:44.813Z,20
2017-08-08T13:29:45.672Z,20
2017-08-08T13:30:46.981Z,20
2017-08-08T13:31:48.189Z,20
2017-08-08T13:32:49.539Z,20
2017-08-08T13:33:50.435Z,20
2017-08-08T13:34:51.236Z,20
2017-08-08T13:35:52.340Z,20
2017-08-08T13:36:53.514Z,20
2017-08-08T13:37:54.500Z,20
2017-08-08T13:38:55.428Z,20
2017-08-08T13:39:56.278Z,20
2017-08-08T13:40:57.130Z,20
2017-08-08T13:41:57.912Z,20
2017-08-08T13:42:58.978Z,20
2017-08-08T13:44:00.037Z,20
2017-08-08T13:45:00.935Z,20
2017-08-08T13:46:02.221Z,20
2017-08-08T13:47:03.059Z,20
2017-08-08T13:48:03.800Z,20
2017-08-08T13:49:04.718Z,20
2017-08-08T13:50:05.605Z,15
2017-08-08T13:51:06.368Z,15
2017-08-08T13:52:07.183Z,15
2017-08-08T13:53:09.132Z,10
2017-08-08T13:54:10.138Z,10
2017-08-08T13:55:10.945Z,15
2017-08-08T13:56:11.718Z,10
2017-08-08T13:57:12.520Z,10
2017-08-08T13:58:13.605Z,10
2017-08-08T13:59:14.785Z,10
2017-08-08T14:00:15.864Z,10
2017-08-08T14:01:17.629Z,10
2017-08-08T14:02:18.572Z,10
2017-08-08T14:03:19.442Z,10
2017-08-08T14:04:20.621Z,10
2017-08-08T14:05:21.382Z,10
2017-08-08T14:06:22.187Z,15
2017-08-08T14:07:23.076Z,15
2017-08-08T14:08:23.898Z,15
2017-08-08T14:09:24.813Z,15
2017-08-08T14:10:25.855Z,15
2017-08-08T14:11:26.663Z,15
2017-08-08T14:12:27.499Z,15
2017-08-08T14:13:28.274Z,10
2017-08-08T14:14:29.048Z,15
2017-08-08T14:15:30.153Z,15
2017-08-08T14:16:31.535Z,15
2017-08-08T14:17:32.425Z,10
2017-08-08T14:18:33.381Z,15
2017-08-08T14:19:34.167Z,10
2017-08-08T14:20:35.015Z,15
2017-08-08T14:21:35.995Z,15
2017-08-08T14:22:36.903Z,15
2017-08-08T14:23:37.763Z,15
2017-08-08T14:24:38.594Z,15
2017-08-08T14:25:39.460Z,15
2017-08-08T14:26:40.308Z,15
2017-08-08T14:27:41.181Z,15
2017-08-08T14:28:42.019Z,15
2017-08-08T14:29:42.985Z,15
2017-08-08T14:30:43.943Z,15
2017-08-08T14:31:45.003Z,15
2017-08-08T14:32:46.024Z,10
2017-08-08T14:33:46.953Z,10
2017-08-08T14:34:47.894Z,10
2017-08-08T14:35:48.802Z,5
2017-08-08T14:36:49.595Z,10
2017-08-08T14:37:50.474Z,10
2017-08-08T14:38:51.241Z,10
2017-08-08T14:39:52.122Z,10
2017-08-08T14:40:53.019Z,10
2017-08-08T14:41:53.873Z,10